Lucentum, Spain

10:40 PM CET die 18o January, anno 2018 (GMT +0100)
Macisvenda | | Change Station

Elev 1354 ft 38.27 °N, 1.01 °W | Updated 2 seconds ago

Partialiter Nubila
Partialiter Nubila
47.8 °F
Feels Like 48 °F
N
1.8
Ventus Variabilis Ventus from Magis Eurus quam Aquilo
Gusts 2.2 mph

Hodie
High -- | Low -- °F
--% Chance of Precip.
Yesterday
High -- | Low -- °F
Precip. -- in
Pressio 30.15 in
Visibilitas 6.2 milia passuum
Clouds Few 2000 ft
Frigus Venti 48 °F
Frigus in quo Ros apparet 45 °F
Umor 89%
Rainfall 0.00 in
Snow Depth Not available.
8:18 AM 6:10 PM
Waxing Crescent, 3% visible
METAR LEAL 182130Z VRB01KT 9999 FEW020 11/09 Q1021 NOSIG
Pressio 30.15 in
Visibilitas 6.2 milia passuum
Clouds Few 2000 ft
Frigus Venti 48 °F
Frigus in quo Ros apparet 45 °F
Umor 89%
Rainfall 0.00 in
Snow Depth Not available.
8:18 AM 6:10 PM
Waxing Crescent, 3% visible
METAR LEAL 182130Z VRB01KT 9999 FEW020 11/09 Q1021 NOSIG

Get Severe Weather Alerts

Thanks for signing up!

Be on the lookout for a verification email in your inbox.

You'll start receiving the daily forecast at 6 AM.

×

10-Day Weather Forecast

×

Almanac

Astronomy

Jan. 18, 2018 Rise Set
Actual Time
Civil Twilight
Nautical Twilight
Astronomical Twilight
Moon
Length Of Visible Light
Length of Day
Tomorrow will be .
, % of the Moon is Illuminated

Today's Extremes

Country Highs Country Lows

Community

WunderPhotos

Category 6

Welcome to Category 6. This is the collective home for Weather Underground's featured writeups by Dr. Jeff Masters (right), Bob Henson (left), Chris Burt, and other regular contributors.

Nearby

Air Quality

  Air Quality AQ Index Pollutant
Not available.

Snow Depth

Station Depth Elevation

Earthquake Activity

City Distance Mag. Time & Date
Minimum magnitude displayed is 2.5.

Coastal Water Temperatures

Locus Calor

Stations

Nearby Weather Stations

Station Location Temp Frigus Venti Frigus in quo Ros apparet Umor Ventus Precip. Elev Renovata Type